Time;durP1;ratioP1;P1;durP2;ratioP2;P2;SDS_P1;SDS_P2;PMS_P1;PMS_P2;Temp;Humidity;BMP_temperature;BMP_pressure;BME280_temperature;BME280_humidity;BME280_pressure;Samples;Min_cycle;Max_cycle;Signal;HPM_P1;HPM_P2
2021/05/16 00:01:41;;;;;;;3.00;1.00;;;12.20;99.90;;;;;;5088575;28;20162;-83
2021/05/16 00:04:07;;;;;;;1.50;1.08;;;12.20;99.90;;;;;;5087497;28;20088;-83
2021/05/16 00:06:32;;;;;;;1.55;1.30;;;12.20;99.90;;;;;;5077936;28;20012;-83
2021/05/16 00:08:58;;;;;;;2.08;1.30;;;12.10;99.90;;;;;;5089643;28;20113;-83
2021/05/16 00:11:24;;;;;;;1.98;1.30;;;12.10;99.90;;;;;;5088427;28;20036;-83
2021/05/16 00:13:49;;;;;;;1.60;1.00;;;12.10;99.90;;;;;;5085177;28;20028;-82
2021/05/16 00:16:15;;;;;;;1.25;0.82;;;12.00;99.90;;;;;;5087217;28;20028;-83
2021/05/16 00:18:42;;;;;;;2.08;1.10;;;12.00;99.90;;;;;;5087600;28;20066;-83
2021/05/16 00:21:08;;;;;;;2.35;0.80;;;12.00;99.90;;;;;;5088932;28;20036;-83
2021/05/16 00:23:34;;;;;;;1.45;1.10;;;11.90;99.90;;;;;;5086800;28;20020;-83
2021/05/16 00:25:59;;;;;;;1.65;1.02;;;11.90;99.90;;;;;;5086256;28;20548;-82
2021/05/16 00:28:25;;;;;;;1.27;0.80;;;11.80;99.90;;;;;;5087038;28;20089;-83
2021/05/16 00:30:52;;;;;;;1.40;0.95;;;11.80;99.90;;;;;;5088961;28;20031;-83
2021/05/16 00:33:18;;;;;;;2.90;0.95;;;11.80;99.90;;;;;;5087319;28;20043;-83
2021/05/16 00:35:43;;;;;;;1.80;1.08;;;11.80;99.90;;;;;;5086986;28;20028;-83
2021/05/16 00:38:09;;;;;;;0.90;0.90;;;11.80;99.90;;;;;;5087989;28;20054;-83
2021/05/16 00:40:35;;;;;;;1.40;1.02;;;11.70;99.90;;;;;;5087468;28;20032;-83
2021/05/16 00:43:01;;;;;;;1.98;1.10;;;11.70;99.90;;;;;;5088840;28;20024;-82
2021/05/16 00:45:28;;;;;;;3.03;1.00;;;11.60;99.90;;;;;;5084957;28;20620;-82
2021/05/16 00:47:56;;;;;;;1.23;0.93;;;11.70;99.90;;;;;;5086894;28;20475;-82
2021/05/16 00:50:24;;;;;;;1.73;0.90;;;11.60;99.90;;;;;;5086360;28;20036;-82
2021/05/16 00:52:50;;;;;;;2.70;1.05;;;11.50;99.90;;;;;;5086835;28;20127;-82
2021/05/16 00:55:17;;;;;;;0.70;0.70;;;11.40;99.90;;;;;;5087081;28;20103;-82
2021/05/16 00:57:43;;;;;;;1.70;0.85;;;11.40;99.90;;;;;;5088332;28;20024;-83
2021/05/16 01:00:12;;;;;;;1.15;0.90;;;11.30;99.90;;;;;;5086449;28;20080;-82
2021/05/16 01:02:38;;;;;;;1.73;1.08;;;11.40;99.90;;;;;;5087953;28;20043;-82
2021/05/16 01:05:05;;;;;;;1.20;0.90;;;11.30;99.90;;;;;;5075068;28;20082;-82
2021/05/16 01:07:31;;;;;;;1.05;0.90;;;11.10;99.90;;;;;;5086497;28;20023;-82
2021/05/16 01:09:56;;;;;;;2.25;0.90;;;11.10;99.90;;;;;;5087039;28;20497;-82
2021/05/16 01:12:30;;;;;;;1.83;1.08;;;11.10;99.90;;;;;;5077369;28;20175;-82
2021/05/16 01:14:58;;;;;;;1.50;0.95;;;11.00;99.90;;;;;;5083587;28;20032;-82
2021/05/16 01:17:23;;;;;;;1.08;0.98;;;10.90;99.90;;;;;;5083560;28;20111;-82
2021/05/16 01:19:49;;;;;;;1.60;1.02;;;10.90;99.90;;;;;;5087081;28;20146;-82
2021/05/16 01:22:14;;;;;;;1.17;0.98;;;10.90;99.90;;;;;;5084811;28;20053;-82
2021/05/16 01:24:43;;;;;;;1.63;1.20;;;10.90;99.90;;;;;;5087607;28;20024;-82
2021/05/16 01:27:13;;;;;;;0.95;0.80;;;10.80;99.90;;;;;;5087745;28;20040;-82
2021/05/16 01:29:39;;;;;;;2.55;0.90;;;10.70;99.90;;;;;;5086758;28;20020;-82
2021/05/16 01:32:10;;;;;;;1.33;0.95;;;10.60;99.90;;;;;;5086622;28;20034;-82
2021/05/16 01:34:37;;;;;;;2.08;1.00;;;10.50;99.90;;;;;;5087319;28;20028;-82
2021/05/16 01:37:03;;;;;;;0.82;0.82;;;10.50;99.90;;;;;;5083703;28;20487;-81
2021/05/16 01:39:28;;;;;;;1.50;0.85;;;10.40;99.90;;;;;;5087793;28;20127;-82
2021/05/16 01:41:54;;;;;;;1.10;1.00;;;10.30;99.90;;;;;;5086616;28;21842;-82
2021/05/16 01:44:20;;;;;;;0.93;0.80;;;10.30;99.90;;;;;;5086981;28;20103;-82
2021/05/16 01:46:46;;;;;;;1.45;1.13;;;10.30;99.90;;;;;;5087382;28;20150;-82
2021/05/16 01:49:13;;;;;;;1.00;0.90;;;10.30;99.90;;;;;;5086375;28;20032;-82
2021/05/16 01:51:38;;;;;;;1.58;1.20;;;10.20;99.90;;;;;;5087793;28;20040;-82
2021/05/16 01:54:07;;;;;;;1.48;0.93;;;10.20;99.90;;;;;;5086957;28;20032;-82
2021/05/16 01:56:32;;;;;;;1.20;1.02;;;10.10;99.90;;;;;;5086534;28;20433;-81
2021/05/16 01:58:58;;;;;;;1.35;0.90;;;10.10;99.90;;;;;;5087210;28;20028;-82
2021/05/16 02:01:24;;;;;;;2.35;1.02;;;10.00;99.90;;;;;;5089404;28;20118;-82
2021/05/16 02:03:50;;;;;;;8.13;1.20;;;9.90;99.90;;;;;;5085955;28;20501;-81
2021/05/16 02:06:17;;;;;;;3.20;1.00;;;9.90;99.90;;;;;;5075190;28;20483;-81
2021/05/16 02:08:45;;;;;;;4.03;1.05;;;9.90;99.90;;;;;;5090033;28;20478;-81
2021/05/16 02:11:13;;;;;;;1.58;0.95;;;9.80;99.90;;;;;;5088930;28;20036;-81
2021/05/16 02:13:40;;;;;;;0.82;0.82;;;9.80;99.90;;;;;;5090003;28;20026;-82
2021/05/16 02:16:22;;;;;;;1.83;1.15;;;9.70;99.90;;;;;;5090406;28;20028;-81
2021/05/16 02:18:48;;;;;;;1.45;0.93;;;9.70;99.90;;;;;;5089980;28;20024;-82
2021/05/16 02:21:13;;;;;;;1.20;1.00;;;9.60;99.90;;;;;;5090876;28;20028;-81
2021/05/16 02:23:40;;;;;;;1.98;1.00;;;9.60;99.90;;;;;;5088680;28;20044;-82
2021/05/16 02:26:06;;;;;;;1.10;1.00;;;9.60;99.90;;;;;;5090401;28;20036;-81
2021/05/16 02:28:32;;;;;;;1.75;1.10;;;9.50;99.90;;;;;;5090216;28;20020;-81
2021/05/16 02:30:58;;;;;;;1.05;0.93;;;9.50;99.90;;;;;;5089576;28;20118;-82
2021/05/16 02:33:23;;;;;;;1.38;1.10;;;9.50;99.90;;;;;;5089618;28;20052;-81
2021/05/16 02:35:49;;;;;;;1.67;1.00;;;9.40;99.90;;;;;;5088593;28;20505;-81
2021/05/16 02:38:14;;;;;;;1.73;1.02;;;9.40;99.90;;;;;;5089337;28;20160;-81
2021/05/16 02:40:40;;;;;;;0.90;0.90;;;9.40;99.90;;;;;;5088012;28;20035;-81
2021/05/16 02:43:05;;;;;;;3.22;1.13;;;9.40;99.90;;;;;;5089306;28;20031;-81
2021/05/16 02:45:31;;;;;;;2.95;1.33;;;9.30;99.90;;;;;;5090362;28;20024;-81
2021/05/16 02:47:56;;;;;;;1.80;1.15;;;9.30;99.90;;;;;;5089254;28;20016;-81
2021/05/16 02:50:22;;;;;;;2.97;1.17;;;9.30;99.90;;;;;;5088714;28;20124;-81
2021/05/16 02:52:48;;;;;;;2.28;1.15;;;9.30;99.90;;;;;;5089409;28;20047;-81
2021/05/16 02:55:14;;;;;;;1.30;1.08;;;9.20;99.90;;;;;;5089094;28;20027;-81
2021/05/16 02:57:39;;;;;;;1.00;0.90;;;9.20;99.90;;;;;;5090712;28;20035;-81
2021/05/16 03:00:06;;;;;;;1.58;1.27;;;9.20;99.90;;;;;;5088504;28;20036;-81
2021/05/16 03:02:32;;;;;;;3.67;1.25;;;9.10;99.90;;;;;;5089286;28;20062;-81
2021/05/16 03:04:57;;;;;;;1.27;1.10;;;9.20;99.90;;;;;;5083927;28;20052;-81
2021/05/16 03:07:23;;;;;;;1.08;0.82;;;9.10;99.90;;;;;;5090317;28;20020;-81
2021/05/16 03:09:48;;;;;;;3.90;1.20;;;9.10;99.90;;;;;;5088934;28;20090;-81
2021/05/16 03:12:14;;;;;;;1.52;1.00;;;9.10;99.90;;;;;;5089402;28;20030;-81
2021/05/16 03:14:39;;;;;;;2.22;1.40;;;9.10;99.90;;;;;;5088922;28;20035;-81
2021/05/16 03:17:05;;;;;;;1.73;1.02;;;9.10;99.90;;;;;;5089926;28;20032;-81
2021/05/16 03:19:32;;;;;;;1.00;0.90;;;9.10;99.90;;;;;;5088778;28;20394;-80
2021/05/16 03:22:00;;;;;;;2.35;1.17;;;9.10;99.90;;;;;;5089607;28;20038;-80
2021/05/16 03:24:25;;;;;;;2.15;0.98;;;9.10;99.90;;;;;;5088005;28;20116;-80
2021/05/16 03:26:51;;;;;;;1.60;1.00;;;9.10;99.90;;;;;;5090398;28;20027;-80
2021/05/16 03:29:16;;;;;;;1.10;1.00;;;9.10;99.90;;;;;;5088840;28;20082;-80
2021/05/16 03:31:42;;;;;;;1.27;1.00;;;9.10;99.90;;;;;;5088611;28;20024;-81
2021/05/16 03:34:07;;;;;;;0.80;0.80;;;9.20;99.90;;;;;;5088526;28;20036;-81
2021/05/16 03:36:33;;;;;;;1.13;0.80;;;9.20;99.90;;;;;;5088652;28;20020;-81
2021/05/16 03:38:59;;;;;;;2.88;1.20;;;9.20;99.90;;;;;;5088467;28;20558;-81
2021/05/16 03:41:24;;;;;;;1.30;1.10;;;9.20;99.90;;;;;;5088327;28;20158;-80
2021/05/16 03:43:50;;;;;;;5.82;0.90;;;9.20;99.90;;;;;;5088433;28;20043;-80
2021/05/16 03:46:17;;;;;;;3.20;1.10;;;9.30;99.90;;;;;;5088191;28;20063;-81
2021/05/16 03:48:42;;;;;;;1.17;1.00;;;9.40;99.90;;;;;;5089212;28;20023;-81
2021/05/16 03:51:09;;;;;;;1.35;1.10;;;9.50;99.90;;;;;;5085027;28;20048;-81
2021/05/16 03:53:34;;;;;;;1.38;1.05;;;9.50;99.90;;;;;;5087481;28;20028;-81
2021/05/16 03:56:00;;;;;;;2.58;1.10;;;9.60;99.90;;;;;;5088133;28;20506;-81
2021/05/16 03:58:25;;;;;;;2.35;1.50;;;9.70;99.90;;;;;;5089038;28;20027;-81
2021/05/16 04:00:51;;;;;;;1.42;1.25;;;9.80;99.90;;;;;;5088917;28;20521;-81
2021/05/16 04:03:16;;;;;;;1.20;1.10;;;10.00;99.90;;;;;;5087675;28;20028;-81
2021/05/16 04:05:42;;;;;;;3.67;1.23;;;10.10;99.90;;;;;;5089162;28;20028;-81
2021/05/16 04:08:07;;;;;;;1.10;1.00;;;10.30;99.90;;;;;;5085709;28;20017;-81
2021/05/16 04:10:33;;;;;;;1.33;1.17;;;10.40;99.90;;;;;;5087805;28;20028;-81
2021/05/16 04:12:59;;;;;;;1.55;1.10;;;10.50;99.90;;;;;;5088248;28;20082;-81
2021/05/16 04:15:25;;;;;;;1.90;1.27;;;10.70;99.90;;;;;;5086668;28;20060;-81
2021/05/16 04:17:50;;;;;;;2.45;1.35;;;10.90;99.90;;;;;;5088690;28;20043;-81
2021/05/16 04:20:16;;;;;;;1.35;1.10;;;11.10;99.90;;;;;;5087145;28;20118;-81
2021/05/16 04:22:41;;;;;;;1.67;1.05;;;11.30;99.90;;;;;;5088303;28;20487;-81
2021/05/16 04:25:07;;;;;;;1.10;1.00;;;11.50;99.90;;;;;;5086102;28;20043;-81
2021/05/16 04:27:33;;;;;;;1.10;1.00;;;11.70;99.90;;;;;;5087442;28;20032;-82
2021/05/16 04:29:58;;;;;;;1.13;1.00;;;11.90;99.90;;;;;;5085222;28;20027;-81
2021/05/16 04:32:24;;;;;;;1.00;0.90;;;12.00;99.90;;;;;;5086461;28;20024;-82
2021/05/16 04:34:50;;;;;;;0.80;0.80;;;12.20;99.90;;;;;;5087302;28;20040;-81
2021/05/16 04:37:15;;;;;;;1.20;1.10;;;12.30;99.90;;;;;;5087374;28;20497;-81
2021/05/16 04:39:41;;;;;;;1.42;1.00;;;12.40;99.90;;;;;;5087431;28;20030;-81
2021/05/16 04:42:07;;;;;;;2.33;1.20;;;12.40;99.90;;;;;;5087144;28;20482;-81
2021/05/16 04:44:32;;;;;;;1.23;0.90;;;12.30;99.90;;;;;;5079952;28;20483;-81
2021/05/16 04:46:58;;;;;;;1.77;1.15;;;12.30;99.90;;;;;;5084620;28;20024;-81
2021/05/16 04:49:23;;;;;;;2.10;0.93;;;12.30;99.90;;;;;;5088463;28;20020;-81
2021/05/16 04:51:49;;;;;;;1.50;1.10;;;12.20;99.90;;;;;;5086834;28;20040;-81
2021/05/16 04:54:14;;;;;;;2.15;0.90;;;12.20;99.90;;;;;;5088344;28;20498;-82
2021/05/16 04:56:40;;;;;;;1.52;0.90;;;12.20;99.90;;;;;;5086570;28;20024;-82
2021/05/16 04:59:05;;;;;;;1.45;1.10;;;12.30;99.90;;;;;;5086395;28;20578;-81
2021/05/16 05:01:31;;;;;;;1.58;1.25;;;12.30;99.90;;;;;;5087070;28;20035;-82
2021/05/16 05:03:58;;;;;;;1.33;1.17;;;12.50;99.90;;;;;;5084730;28;20020;-82
2021/05/16 05:06:23;;;;;;;4.03;1.30;;;12.50;99.90;;;;;;5086158;28;20032;-82
2021/05/16 05:08:49;;;;;;;1.88;0.93;;;12.70;99.90;;;;;;5088285;28;20020;-81
2021/05/16 05:11:14;;;;;;;1.23;1.13;;;12.70;99.90;;;;;;5084854;28;20028;-81
2021/05/16 05:13:40;;;;;;;1.55;0.82;;;12.80;99.90;;;;;;5084974;28;20363;-81
2021/05/16 05:16:05;;;;;;;3.42;1.30;;;12.90;99.90;;;;;;5087708;28;21539;-81
2021/05/16 05:18:32;;;;;;;1.90;1.30;;;12.90;99.90;;;;;;5085686;28;20037;-81
2021/05/16 05:20:59;;;;;;;1.30;1.10;;;13.00;99.90;;;;;;5086145;28;20073;-82
2021/05/16 05:23:27;;;;;;;2.55;1.38;;;13.00;99.90;;;;;;5087215;28;20372;-81
2021/05/16 05:25:52;;;;;;;2.45;1.38;;;13.00;99.90;;;;;;5085730;28;20450;-81
2021/05/16 05:28:18;;;;;;;1.13;1.02;;;13.00;99.90;;;;;;5086476;28;20047;-81
2021/05/16 05:30:44;;;;;;;1.63;1.02;;;13.00;99.90;;;;;;5086839;28;20436;-81
2021/05/16 05:33:09;;;;;;;1.30;1.20;;;13.10;99.90;;;;;;5086626;28;20457;-81
2021/05/16 05:35:35;;;;;;;1.73;1.20;;;13.10;99.90;;;;;;5088426;28;20024;-81
2021/05/16 05:38:01;;;;;;;1.33;0.95;;;13.10;99.90;;;;;;5091601;28;20039;-82
2021/05/16 05:40:26;;;;;;;2.67;0.90;;;13.20;99.90;;;;;;5089783;28;20040;-81
2021/05/16 05:42:52;;;;;;;1.30;0.82;;;13.20;99.90;;;;;;5091350;28;20077;-81
2021/05/16 05:45:17;;;;;;;0.98;0.85;;;13.10;99.90;;;;;;5090892;28;20031;-81
2021/05/16 05:47:43;;;;;;;1.20;1.10;;;13.20;99.90;;;;;;5090635;28;20429;-81
2021/05/16 05:50:09;;;;;;;1.02;1.02;;;13.20;99.90;;;;;;5089860;28;20016;-81
2021/05/16 05:52:35;;;;;;;1.23;1.13;;;13.20;99.90;;;;;;5089109;28;20040;-82
2021/05/16 05:55:00;;;;;;;1.38;0.90;;;13.20;99.90;;;;;;5089640;28;20024;-82
2021/05/16 05:57:26;;;;;;;1.30;0.90;;;13.10;99.90;;;;;;5089531;28;20024;-81
2021/05/16 05:59:52;;;;;;;1.35;1.10;;;13.10;99.90;;;;;;5089869;28;20028;-81
2021/05/16 06:02:17;;;;;;;1.05;0.93;;;13.10;99.90;;;;;;5089440;28;20112;-81
2021/05/16 06:04:43;;;;;;;1.00;0.82;;;13.10;99.90;;;;;;5087503;28;20099;-81
2021/05/16 06:07:08;;;;;;;2.42;0.90;;;13.10;99.90;;;;;;5090772;28;20498;-81
2021/05/16 06:09:35;;;;;;;1.65;1.13;;;13.10;99.90;;;;;;5089714;28;20651;-81
2021/05/16 06:12:04;;;;;;;1.83;1.02;;;13.20;99.90;;;;;;5091185;28;20040;-82
2021/05/16 06:14:30;;;;;;;2.65;0.90;;;13.30;99.90;;;;;;5089771;28;20077;-83
2021/05/16 06:16:56;;;;;;;1.05;0.85;;;13.30;99.90;;;;;;5090266;28;20020;-82
2021/05/16 06:19:21;;;;;;;0.88;0.82;;;13.30;99.90;;;;;;5090928;28;20035;-83
2021/05/16 06:21:47;;;;;;;1.17;1.00;;;13.40;99.90;;;;;;5088585;28;20163;-83
2021/05/16 06:24:13;;;;;;;2.03;0.80;;;13.40;99.90;;;;;;5090708;28;20020;-83
2021/05/16 06:26:41;;;;;;;1.75;0.90;;;13.50;99.90;;;;;;5088407;28;20024;-83
2021/05/16 06:29:08;;;;;;;1.10;0.80;;;13.60;99.90;;;;;;5090457;28;20253;-81
2021/05/16 06:31:33;;;;;;;1.58;0.85;;;13.80;99.90;;;;;;5089408;28;20549;-82
2021/05/16 06:33:59;;;;;;;1.10;0.70;;;13.90;99.90;;;;;;5090195;28;20043;-83
2021/05/16 06:36:28;;;;;;;1.23;0.65;;;14.10;99.90;;;;;;5090629;28;20032;-82
2021/05/16 06:38:54;;;;;;;1.83;0.80;;;14.20;99.90;;;;;;5090620;28;20028;-83
2021/05/16 06:41:21;;;;;;;0.70;0.68;;;14.20;99.90;;;;;;5088012;28;20024;-79
2021/05/16 06:43:47;;;;;;;1.38;0.73;;;14.20;99.90;;;;;;5090887;28;20028;-82
2021/05/16 06:46:16;;;;;;;0.90;0.85;;;14.30;99.90;;;;;;5089120;28;20574;-82
2021/05/16 06:48:42;;;;;;;1.48;0.73;;;14.30;99.90;;;;;;5086823;28;20144;-82
2021/05/16 06:51:07;;;;;;;0.60;0.60;;;14.50;99.90;;;;;;5089470;28;20637;-83
2021/05/16 06:53:34;;;;;;;5.13;0.98;;;14.60;98.80;;;;;;5085361;28;20027;-83
2021/05/16 06:55:59;;;;;;;0.60;0.60;;;14.70;99.30;;;;;;5088556;28;20035;-83
2021/05/16 06:58:25;;;;;;;0.50;0.50;;;14.80;99.00;;;;;;5088524;28;20182;-83
2021/05/16 07:00:50;;;;;;;1.23;0.98;;;15.00;98.40;;;;;;5090433;28;20028;-82
2021/05/16 07:03:16;;;;;;;0.60;0.60;;;15.00;97.20;;;;;;5089283;28;20070;-81
2021/05/16 07:05:44;;;;;;;2.35;0.73;;;15.00;97.60;;;;;;5084839;28;20020;-83
2021/05/16 07:08:10;;;;;;;0.93;0.75;;;14.90;97.00;;;;;;5088127;28;20028;-82
2021/05/16 07:10:36;;;;;;;0.70;0.65;;;14.90;97.40;;;;;;5089161;28;20036;-84
2021/05/16 07:13:02;;;;;;;0.50;0.50;;;14.90;97.00;;;;;;5084192;28;20032;-82
2021/05/16 07:15:27;;;;;;;0.93;0.82;;;14.80;97.50;;;;;;5083406;28;20031;-83
2021/05/16 07:17:53;;;;;;;0.75;0.60;;;14.70;97.70;;;;;;5084872;28;20085;-83
2021/05/16 07:20:18;;;;;;;2.13;0.60;;;14.70;98.30;;;;;;5087674;28;20039;-83
2021/05/16 07:22:44;;;;;;;0.60;0.60;;;14.60;99.70;;;;;;5088193;28;20689;-84
2021/05/16 07:25:10;;;;;;;0.70;0.70;;;14.50;99.80;;;;;;5089345;28;20483;-84
2021/05/16 07:27:36;;;;;;;0.90;0.60;;;14.40;99.90;;;;;;5086774;28;20066;-82
2021/05/16 07:30:03;;;;;;;1.30;0.63;;;14.40;99.90;;;;;;5089584;28;20056;-83
2021/05/16 07:32:28;;;;;;;0.70;0.70;;;14.40;99.90;;;;;;5088633;28;20023;-81
2021/05/16 07:34:54;;;;;;;1.05;0.90;;;14.30;99.90;;;;;;5082331;28;20089;-80
2021/05/16 07:37:19;;;;;;;0.93;0.80;;;14.20;99.90;;;;;;5089678;28;20020;-80
2021/05/16 07:39:45;;;;;;;0.70;0.70;;;14.20;99.90;;;;;;5088411;28;20024;-85
2021/05/16 07:42:10;;;;;;;1.00;0.90;;;14.20;99.90;;;;;;5088823;28;20217;-74
2021/05/16 07:44:36;;;;;;;1.15;0.85;;;14.20;99.90;;;;;;5089175;28;20020;-74
2021/05/16 07:47:01;;;;;;;1.05;0.90;;;14.30;99.90;;;;;;5087622;28;20537;-74
2021/05/16 07:49:27;;;;;;;1.23;0.93;;;14.40;99.90;;;;;;5085553;28;20036;-74
2021/05/16 07:51:52;;;;;;;2.08;1.15;;;14.50;99.90;;;;;;5089165;28;20067;-74
2021/05/16 07:54:18;;;;;;;5.18;0.77;;;14.60;99.90;;;;;;5075371;28;20541;-75
2021/05/16 07:56:44;;;;;;;1.15;0.88;;;14.70;99.90;;;;;;5079428;28;20020;-75
2021/05/16 07:59:10;;;;;;;0.90;0.80;;;14.70;99.90;;;;;;5077158;28;20039;-74
2021/05/16 08:01:35;;;;;;;1.00;0.90;;;14.70;99.90;;;;;;5079871;28;20028;-75
2021/05/16 08:04:01;;;;;;;1.00;0.88;;;14.60;99.90;;;;;;5081090;28;20021;-73
2021/05/16 08:06:26;;;;;;;1.88;0.80;;;14.60;99.90;;;;;;5079398;28;20032;-75
2021/05/16 08:08:52;;;;;;;0.88;0.88;;;14.60;99.90;;;;;;5080051;28;20027;-74
2021/05/16 08:11:17;;;;;;;1.45;1.00;;;14.70;99.90;;;;;;5080505;28;20028;-74
2021/05/16 08:13:43;;;;;;;1.40;1.00;;;14.60;99.90;;;;;;5080505;28;20430;-74
2021/05/16 08:16:08;;;;;;;0.90;0.90;;;14.50;99.90;;;;;;5080683;28;20058;-74
2021/05/16 08:18:34;;;;;;;0.85;0.70;;;14.50;99.90;;;;;;5079077;28;20031;-74
2021/05/16 08:20:59;;;;;;;1.58;0.82;;;14.40;99.90;;;;;;5079240;28;20493;-74
2021/05/16 08:23:25;;;;;;;1.02;0.70;;;14.50;99.90;;;;;;5078205;28;20023;-74
2021/05/16 08:25:51;;;;;;;0.95;0.80;;;14.50;99.90;;;;;;5078457;28;20502;-74
2021/05/16 08:28:16;;;;;;;2.92;1.00;;;14.70;99.90;;;;;;5079361;28;20035;-74
2021/05/16 08:30:42;;;;;;;0.98;0.90;;;15.00;99.90;;;;;;5076165;28;20031;-77
2021/05/16 08:33:08;;;;;;;1.35;1.10;;;15.20;99.90;;;;;;5080342;28;20028;-75
2021/05/16 08:35:34;;;;;;;1.05;0.95;;;15.30;99.90;;;;;;5076853;28;20060;-75
2021/05/16 08:38:00;;;;;;;2.85;1.10;;;15.50;99.90;;;;;;5077339;28;20036;-77
2021/05/16 08:40:25;;;;;;;2.45;1.02;;;15.60;99.90;;;;;;5073739;28;20041;-75
2021/05/16 08:42:51;;;;;;;4.38;1.20;;;15.70;99.90;;;;;;5076869;28;20031;-77
2021/05/16 08:45:17;;;;;;;0.90;0.90;;;15.70;99.90;;;;;;5076917;28;20166;-77
2021/05/16 08:47:44;;;;;;;1.80;0.82;;;15.60;99.90;;;;;;5077802;28;20036;-75
2021/05/16 08:50:14;;;;;;;2.03;0.90;;;15.60;99.90;;;;;;5078205;28;20032;-77
2021/05/16 08:52:39;;;;;;;0.73;0.73;;;15.40;99.90;;;;;;5077925;28;20139;-76
2021/05/16 08:55:06;;;;;;;1.00;0.90;;;15.30;99.90;;;;;;5079687;28;20111;-76
2021/05/16 08:57:32;;;;;;;1.15;0.90;;;15.30;99.90;;;;;;5080699;28;20031;-77
2021/05/16 09:00:10;;;;;;;0.95;0.75;;;15.30;99.90;;;;;;5078581;28;20024;-76
2021/05/16 09:03:02;;;;;;;1.20;0.70;;;15.20;99.90;;;;;;5077991;28;20229;-76
2021/05/16 09:05:36;;;;;;;4.10;0.98;;;15.00;99.90;;;;;;5078055;28;20032;-77
2021/05/16 09:08:04;;;;;;;1.10;0.75;;;14.90;99.90;;;;;;5079146;28;20046;-78
2021/05/16 09:10:31;;;;;;;0.95;0.80;;;14.80;99.90;;;;;;5083029;28;20086;-78
2021/05/16 09:13:20;;;;;;;1.15;0.80;;;14.60;99.90;;;;;;5082432;28;20032;-77
2021/05/16 09:16:00;;;;;;;1.38;0.90;;;14.60;99.90;;;;;;5079288;28;20032;-77
2021/05/16 09:18:36;;;;;;;0.93;0.70;;;14.70;99.90;;;;;;5082518;28;20550;-78
2021/05/16 09:21:34;;;;;;;1.05;0.85;;;14.80;99.90;;;;;;5082799;28;20114;-77
2021/05/16 09:24:00;;;;;;;0.82;0.70;;;15.10;99.90;;;;;;5084593;28;20036;-79
2021/05/16 09:26:27;;;;;;;1.95;0.82;;;15.20;99.90;;;;;;5083518;28;20107;-78
2021/05/16 09:28:53;;;;;;;0.88;0.75;;;15.20;99.90;;;;;;5083217;28;20032;-80
2021/05/16 09:31:35;;;;;;;0.90;0.90;;;15.30;99.90;;;;;;5081791;28;20109;-79
2021/05/16 09:34:03;;;;;;;1.48;1.10;;;15.40;99.90;;;;;;5083756;28;20054;-77
2021/05/16 09:36:35;;;;;;;2.47;1.00;;;15.50;99.90;;;;;;5082127;28;20107;-76
2021/05/16 09:39:14;;;;;;;2.30;0.93;;;15.50;99.90;;;;;;5089650;28;20039;-79
2021/05/16 09:42:05;;;;;;;1.10;0.70;;;15.50;99.90;;;;;;5088750;28;20090;-78
2021/05/16 09:44:36;;;;;;;1.55;0.95;;;15.60;99.90;;;;;;5089703;28;20389;-79
2021/05/16 09:47:09;;;;;;;2.97;1.30;;;15.60;99.90;;;;;;5085862;28;20161;-79
2021/05/16 09:49:35;;;;;;;1.05;0.70;;;15.60;99.90;;;;;;5082256;28;20427;-80
2021/05/16 09:52:28;;;;;;;1.27;0.88;;;15.80;99.90;;;;;;5080545;28;20055;-79
2021/05/16 09:55:10;;;;;;;0.70;0.70;;;15.90;99.90;;;;;;5084119;28;20868;-80
2021/05/16 09:57:43;;;;;;;1.00;0.90;;;16.10;99.90;;;;;;5082055;28;20107;-76
2021/05/16 10:00:10;;;;;;;0.85;0.80;;;16.30;99.90;;;;;;5078385;28;20060;-74
2021/05/16 10:02:37;;;;;;;3.17;0.93;;;16.40;99.90;;;;;;5081501;28;21387;-76
2021/05/16 10:05:05;;;;;;;1.60;0.82;;;16.50;99.90;;;;;;5079181;28;20024;-74
2021/05/16 10:07:31;;;;;;;1.88;1.20;;;16.80;97.10;;;;;;5080226;28;20024;-73
2021/05/16 10:09:57;;;;;;;1.73;1.08;;;17.00;95.50;;;;;;5083629;28;20028;-74
2021/05/16 10:12:24;;;;;;;1.10;0.85;;;17.10;95.30;;;;;;5067687;28;20039;-74
2021/05/16 10:15:10;;;;;;;0.70;0.65;;;17.10;95.10;;;;;;5079357;28;20028;-74
2021/05/16 10:17:39;;;;;;;4.82;0.90;;;17.10;94.60;;;;;;5078593;28;20513;-73
2021/05/16 10:20:13;;;;;;;2.25;1.00;;;17.10;93.20;;;;;;5079174;28;20442;-74
2021/05/16 10:22:40;;;;;;;1.67;0.82;;;16.90;92.80;;;;;;5079994;28;20032;-74
2021/05/16 10:25:06;;;;;;;3.20;1.05;;;16.80;94.50;;;;;;5077664;28;20031;-75
2021/05/16 10:27:43;;;;;;;1.65;1.15;;;16.60;96.10;;;;;;5079430;28;20452;-74
2021/05/16 10:30:13;;;;;;;2.42;0.80;;;16.50;95.40;;;;;;5080292;28;20651;-74
2021/05/16 10:32:49;;;;;;;3.50;0.82;;;16.40;95.80;;;;;;5078437;28;20067;-74
2021/05/16 10:35:14;;;;;;;2.08;0.90;;;16.20;96.10;;;;;;5080548;28;20024;-74
2021/05/16 10:37:47;;;;;;;1.45;0.93;;;16.00;97.70;;;;;;5077468;28;20031;-74
2021/05/16 10:40:22;;;;;;;1.48;1.00;;;15.80;99.90;;;;;;5078937;28;20123;-74
2021/05/16 10:42:50;;;;;;;1.25;1.00;;;15.50;99.90;;;;;;5079377;28;20036;-73
2021/05/16 10:45:18;;;;;;;3.33;1.52;;;15.20;99.90;;;;;;5080094;28;20032;-81
2021/05/16 10:47:52;;;;;;;1.92;1.10;;;15.00;99.90;;;;;;5079503;28;20036;-80
2021/05/16 10:50:24;;;;;;;2.92;1.02;;;14.90;99.90;;;;;;5080737;28;20160;-79
2021/05/16 10:52:56;;;;;;;;;;;14.90;99.90;;;;;;5080862;28;20085;-82
2021/05/16 10:55:42;;;;;;;5.88;1.13;;;15.10;99.90;;;;;;5081092;28;19923;-82
2021/05/16 10:58:31;;;;;;;1.23;0.80;;;15.40;99.90;;;;;;5080477;28;20032;-82
2021/05/16 11:01:03;;;;;;;1.00;0.77;;;15.90;99.90;;;;;;5081761;28;20031;-81
2021/05/16 11:03:46;;;;;;;2.58;0.90;;;16.20;99.90;;;;;;5077000;28;20021;-83
2021/05/16 11:06:14;;;;;;;1.98;1.00;;;16.60;99.90;;;;;;5079953;28;20032;-84
2021/05/16 11:08:39;;;;;;;2.35;1.17;;;16.80;99.90;;;;;;5076834;28;20113;-83
2021/05/16 11:11:28;;;;;;;4.22;0.93;;;16.90;99.90;;;;;;5077680;28;20028;-83
2021/05/16 11:13:54;;;;;;;2.45;0.95;;;17.20;99.90;;;;;;5078785;28;20051;-84
2021/05/16 11:16:19;;;;;;;2.00;1.27;;;17.50;99.90;;;;;;5072622;28;20032;-83
2021/05/16 11:18:45;;;;;;;1.27;0.90;;;18.00;99.90;;;;;;5074625;28;20028;-83
2021/05/16 11:21:10;;;;;;;2.33;1.02;;;18.40;99.90;;;;;;5078669;28;20034;-84
2021/05/16 11:23:41;;;;;;;1.50;1.00;;;18.90;99.70;;;;;;5079625;28;20024;-84
2021/05/16 11:26:07;;;;;;;1.88;0.90;;;19.30;91.70;;;;;;5080640;28;20903;-85
2021/05/16 11:28:34;;;;;;;2.40;0.77;;;19.70;91.50;;;;;;5079260;28;20056;-84
2021/05/16 11:31:07;;;;;;;4.82;1.30;;;20.40;91.90;;;;;;5078534;28;20024;-84
2021/05/16 11:33:37;;;;;;;0.80;0.80;;;20.90;80.80;;;;;;5077181;28;20043;-85
2021/05/16 11:36:12;;;;;;;3.42;0.75;;;21.60;75.30;;;;;;5078408;28;20066;-85
2021/05/16 11:38:39;;;;;;;0.80;0.80;;;21.60;72.10;;;;;;5078749;28;20028;-85
2021/05/16 11:41:06;;;;;;;2.85;1.10;;;21.20;75.40;;;;;;5079077;28;20035;-85
2021/05/16 11:43:35;;;;;;;2.10;1.10;;;20.50;74.70;;;;;;5077783;28;20024;-85
2021/05/16 11:46:02;;;;;;;2.83;1.50;;;19.50;80.30;;;;;;5078302;28;20073;-85
2021/05/16 11:48:40;;;;;;;2.05;0.80;;;19.20;80.60;;;;;;5077584;28;20024;-84
2021/05/16 11:51:08;;;;;;;1.35;0.90;;;18.90;80.80;;;;;;5076559;28;20406;-84
2021/05/16 11:53:35;;;;;;;3.42;1.00;;;18.60;82.10;;;;;;5078941;28;20043;-85
2021/05/16 11:56:03;;;;;;;5.45;1.10;;;18.40;87.30;;;;;;5079237;28;20039;-84
2021/05/16 11:58:30;;;;;;;4.95;0.95;;;18.30;82.80;;;;;;5079258;28;20043;-84
2021/05/16 12:00:57;;;;;;;2.90;0.80;;;18.00;87.40;;;;;;5077905;28;20081;-84
2021/05/16 12:03:22;;;;;;;2.03;1.05;;;17.90;86.20;;;;;;5078470;28;20051;-85
2021/05/16 12:05:49;;;;;;;6.43;0.80;;;17.80;87.60;;;;;;5076998;28;20052;-84
2021/05/16 12:08:16;;;;;;;0.80;0.70;;;17.70;81.70;;;;;;5077943;28;20028;-84
2021/05/16 12:10:43;;;;;;;0.38;0.38;;;17.60;76.50;;;;;;5077901;28;20051;-84
2021/05/16 12:13:22;;;;;;;1.27;0.60;;;18.30;76.00;;;;;;5079869;28;20039;-85
2021/05/16 12:15:49;;;;;;;1.70;0.73;;;19.80;74.90;;;;;;5078817;28;20464;-85
2021/05/16 12:18:24;;;;;;;1.65;0.60;;;20.20;69.60;;;;;;5074852;28;20028;-84
2021/05/16 12:21:02;;;;;;;0.68;0.60;;;19.90;64.00;;;;;;5083327;28;20036;-74
2021/05/16 12:23:28;;;;;;;1.90;0.40;;;19.70;71.00;;;;;;5084340;28;20073;-76
2021/05/16 12:25:54;;;;;;;1.25;0.40;;;20.70;65.40;;;;;;5086917;28;20024;-77
2021/05/16 12:28:19;;;;;;;1.95;0.50;;;21.70;62.60;;;;;;5088577;28;20062;-76
2021/05/16 12:30:46;;;;;;;2.53;0.80;;;22.80;58.00;;;;;;5087549;28;20036;-76
2021/05/16 12:33:12;;;;;;;0.43;0.35;;;23.80;54.50;;;;;;5086271;28;20023;-78
2021/05/16 12:35:38;;;;;;;4.53;0.60;;;24.10;52.50;;;;;;5087550;28;20035;-76
2021/05/16 12:38:11;;;;;;;0.80;0.50;;;24.70;52.30;;;;;;5085150;28;20032;-75
2021/05/16 12:40:37;;;;;;;0.32;0.32;;;24.90;51.40;;;;;;5087247;28;20478;-76
2021/05/16 12:43:04;;;;;;;0.38;0.38;;;25.20;50.30;;;;;;5084056;28;20102;-75
2021/05/16 12:45:31;;;;;;;0.55;0.40;;;25.30;48.20;;;;;;5086365;28;20043;-77
2021/05/16 12:48:09;;;;;;;1.00;0.68;;;24.90;47.40;;;;;;5087769;28;20111;-75
2021/05/16 12:50:50;;;;;;;0.40;0.40;;;23.40;49.80;;;;;;5086584;28;20032;-75